Eferding, Austria
Current Conditions -  °F | °C
As of 3:20 AM on Wednesday 22 Oct 2014 (Local Time) from LOWL Reporting Station
Broken Clouds Broken Clouds  
Wind Chill: 40°   Ceiling: 3800
Heat Index: 48°   Visibility: 6mi
Dew Point: 41°   Wind: 25mph
Humidity: 76%   Direction: 270°W
Pressure: 29.83"   Gusts: NA
Location:  48.31°N, 14.02°E
Report Text: LOWL 220120Z AUTO 27022KT 9999 FEW024 BKN038 09/05 Q1010
Loading
Personal Weather Stations






























Interactive Weather Map
Tropical Storm Tracking
New forecast layout! Learn more

10-Day Weather Forecast

Advertisements
Track Severe Weather on mobile